createdAt,value
2023-01-15T00:01:34.917Z,29.37
2023-01-15T00:04:43.725Z,28.71
2023-01-15T00:07:51.418Z,36.33
2023-01-15T00:10:57.521Z,33.32
2023-01-15T00:14:04.764Z,29.15
2023-01-15T00:17:10.921Z,29.77
2023-01-15T00:20:22.639Z,32.02
2023-01-15T00:23:40.925Z,30.46
2023-01-15T00:27:00.492Z,30.32
2023-01-15T00:30:06.870Z,30.97
2023-01-15T00:33:13.843Z,31.20
2023-01-15T00:36:22.554Z,28.64
2023-01-15T00:39:30.320Z,32.59
2023-01-15T00:42:36.520Z,33.02
2023-01-15T00:45:43.790Z,33.11
2023-01-15T00:48:50.014Z,33.32
2023-01-15T00:51:59.535Z,37.60
2023-01-15T00:55:05.760Z,36.79
2023-01-15T00:58:12.600Z,35.85
2023-01-15T01:01:19.679Z,34.34
2023-01-15T01:04:26.723Z,33.64
2023-01-15T01:07:35.287Z,35.24
2023-01-15T01:10:43.499Z,34.33
2023-01-15T01:13:50.287Z,34.42
2023-01-15T01:16:57.602Z,36.44
2023-01-15T01:20:03.868Z,37.61
2023-01-15T01:23:13.371Z,34.16
2023-01-15T01:26:20.299Z,35.70
2023-01-15T01:29:27.665Z,34.25
2023-01-15T01:32:33.650Z,33.91
2023-01-15T01:35:41.571Z,38.15
2023-01-15T01:38:52.072Z,36.99
2023-01-15T01:41:59.024Z,38.32
2023-01-15T01:45:25.108Z,35.67
2023-01-15T01:48:37.398Z,35.72
2023-01-15T01:51:49.189Z,34.57
2023-01-15T01:55:01.247Z,37.54
2023-01-15T01:58:13.938Z,36.32
2023-01-15T02:01:22.560Z,36.73
2023-01-15T02:04:34.231Z,36.29
2023-01-15T02:07:41.683Z,38.34
2023-01-15T02:10:56.751Z,38.11
2023-01-15T02:14:24.434Z,37.61
2023-01-15T02:17:46.135Z,39.20
2023-01-15T02:21:03.235Z,36.19
2023-01-15T02:24:26.701Z,38.24
2023-01-15T02:27:38.697Z,37.73
2023-01-15T02:30:56.466Z,38.94
2023-01-15T02:34:15.439Z,37.97
2023-01-15T02:37:31.631Z,38.43
2023-01-15T02:40:43.049Z,35.61
2023-01-15T02:44:00.474Z,36.73
2023-01-15T02:47:12.869Z,34.53
2023-01-15T02:50:31.289Z,32.77
2023-01-15T02:53:46.008Z,31.82
2023-01-15T02:56:56.086Z,32.54
2023-01-15T03:00:14.387Z,33.07
2023-01-15T03:03:34.259Z,31.81
2023-01-15T03:06:49.530Z,30.71
2023-01-15T03:10:01.652Z,30.83
2023-01-15T03:13:20.632Z,29.18
2023-01-15T03:16:40.181Z,29.26
2023-01-15T03:19:55.538Z,30.33
2023-01-15T03:23:14.927Z,29.74
2023-01-15T03:26:21.116Z,30.58
2023-01-15T03:29:35.838Z,31.90
2023-01-15T03:32:45.604Z,32.09
2023-01-15T03:35:58.654Z,31.50
2023-01-15T03:39:16.455Z,30.34
2023-01-15T03:43:17.626Z,28.84
2023-01-15T03:46:59.244Z,28.66
2023-01-15T03:50:27.174Z,28.67
2023-01-15T03:53:45.136Z,28.67
2023-01-15T03:57:01.805Z,28.86
2023-01-15T04:00:18.693Z,28.71
2023-01-15T04:03:35.739Z,26.97
2023-01-15T04:06:47.972Z,27.36
2023-01-15T04:09:55.342Z,27.78
2023-01-15T04:13:01.504Z,25.72
2023-01-15T04:16:11.164Z,25.81
2023-01-15T04:19:17.326Z,26.62
2023-01-15T04:22:42.892Z,27.12
2023-01-15T04:25:49.085Z,24.03
2023-01-15T04:28:55.875Z,27.18
2023-01-15T04:32:01.967Z,25.39
2023-01-15T04:35:09.888Z,27.04
2023-01-15T04:38:18.646Z,24.75
2023-01-15T04:41:38.014Z,26.31
2023-01-15T04:44:44.102Z,26.30
2023-01-15T04:47:50.988Z,28.32
2023-01-15T04:50:58.120Z,47.76
2023-01-15T04:54:10.756Z,68.10
2023-01-15T04:57:17.827Z,41.26
2023-01-15T05:00:25.629Z,41.54
2023-01-15T05:03:32.029Z,46.41
2023-01-15T05:06:39.044Z,30.64
2023-01-15T05:09:51.849Z,28.86
2023-01-15T05:12:58.739Z,29.23
2023-01-15T05:16:17.546Z,33.23
2023-01-15T05:19:24.761Z,32.05
2023-01-15T05:22:32.214Z,31.62
2023-01-15T05:25:42.749Z,31.87
2023-01-15T05:28:50.296Z,31.54
2023-01-15T05:31:57.338Z,33.24
2023-01-15T05:35:03.411Z,33.58
2023-01-15T05:38:10.280Z,29.99
2023-01-15T05:41:33.779Z,32.00
2023-01-15T05:44:40.844Z,30.61
2023-01-15T05:47:46.875Z,41.54
2023-01-15T05:50:53.829Z,32.93
2023-01-15T05:54:01.680Z,29.63
2023-01-15T05:57:16.236Z,29.49
2023-01-15T06:00:24.497Z,32.20
2023-01-15T06:03:31.455Z,30.65
2023-01-15T06:06:38.731Z,30.91
2023-01-15T06:09:45.865Z,31.50
2023-01-15T06:12:54.484Z,31.99
2023-01-15T06:16:03.140Z,31.01
2023-01-15T06:19:11.288Z,30.32
2023-01-15T06:22:18.561Z,30.59
2023-01-15T06:25:24.872Z,30.52
2023-01-15T06:28:35.254Z,29.21
2023-01-15T06:31:41.516Z,31.74
2023-01-15T06:34:48.414Z,32.45
2023-01-15T06:37:55.205Z,31.89
2023-01-15T06:41:03.606Z,31.95
2023-01-15T06:44:29.166Z,29.32
2023-01-15T06:47:36.125Z,29.62
2023-01-15T06:50:42.227Z,27.48
2023-01-15T06:53:49.798Z,30.63
2023-01-15T06:56:56.148Z,29.29
2023-01-15T07:00:05.969Z,28.53
2023-01-15T07:03:14.493Z,31.40
2023-01-15T07:06:21.525Z,28.50
2023-01-15T07:09:28.021Z,28.66
2023-01-15T07:12:34.948Z,27.99
2023-01-15T07:15:44.401Z,31.03
2023-01-15T07:18:51.310Z,28.99
2023-01-15T07:21:57.553Z,33.90
2023-01-15T07:25:04.843Z,35.50
2023-01-15T07:28:11.619Z,35.66
2023-01-15T07:31:21.309Z,32.94
2023-01-15T07:34:28.255Z,31.38
2023-01-15T07:37:35.241Z,28.56
2023-01-15T07:40:41.454Z,30.75
2023-01-15T07:44:01.084Z,34.18
2023-01-15T07:47:34.681Z,31.44
2023-01-15T07:50:41.699Z,36.01
2023-01-15T07:53:47.979Z,49.02
2023-01-15T07:56:56.989Z,69.89
2023-01-15T08:00:03.489Z,61.57
2023-01-15T08:03:21.447Z,49.71
2023-01-15T08:06:27.671Z,49.63
2023-01-15T08:09:35.030Z,48.06
2023-01-15T08:12:55.129Z,53.31
2023-01-15T08:16:03.404Z,59.63
2023-01-15T08:19:12.670Z,60.93
2023-01-15T08:22:19.606Z,61.88
2023-01-15T08:25:29.791Z,66.54
2023-01-15T08:28:36.725Z,61.12
2023-01-15T08:31:43.157Z,50.23
2023-01-15T08:34:52.811Z,57.58
2023-01-15T08:37:59.039Z,60.89
2023-01-15T08:41:06.146Z,50.38
2023-01-15T08:44:14.212Z,48.81
2023-01-15T08:47:21.708Z,54.08
2023-01-15T08:50:30.640Z,55.60
2023-01-15T08:53:38.732Z,44.97
2023-01-15T08:56:45.329Z,44.87
2023-01-15T08:59:52.497Z,43.59
2023-01-15T09:02:58.690Z,52.03
2023-01-15T09:06:09.232Z,50.33
2023-01-15T09:09:16.454Z,51.47
2023-01-15T09:12:25.232Z,50.06
2023-01-15T09:15:31.894Z,48.65
2023-01-15T09:18:41.707Z,45.32
2023-01-15T09:21:50.535Z,46.74
2023-01-15T09:24:57.617Z,45.60
2023-01-15T09:28:03.715Z,44.76
2023-01-15T09:31:10.865Z,40.48
2023-01-15T09:34:17.094Z,38.35
2023-01-15T09:37:26.860Z,36.59
2023-01-15T09:40:50.691Z,37.28
2023-01-15T09:44:20.257Z,34.00
2023-01-15T09:47:37.139Z,38.26
2023-01-15T09:51:07.808Z,46.41
2023-01-15T09:54:47.318Z,45.61
2023-01-15T09:58:01.238Z,43.63
2023-01-15T10:01:09.529Z,37.43
2023-01-15T10:04:37.124Z,47.50
2023-01-15T10:07:57.370Z,43.86
2023-01-15T10:11:45.202Z,77.91
2023-01-15T10:15:04.506Z,36.32
2023-01-15T10:18:22.461Z,36.42
2023-01-15T10:21:43.185Z,36.26
2023-01-15T10:25:00.625Z,40.31
2023-01-15T10:28:28.343Z,65.18
2023-01-15T10:31:54.626Z,73.46
2023-01-15T10:35:33.432Z,48.46
2023-01-15T10:38:58.988Z,53.45
2023-01-15T10:42:29.856Z,47.10
2023-01-15T10:45:51.122Z,58.32
2023-01-15T10:49:05.327Z,51.81
2023-01-15T10:52:31.412Z,60.56
2023-01-15T10:55:44.810Z,60.50
2023-01-15T10:59:01.881Z,45.00
2023-01-15T11:02:29.309Z,41.70
2023-01-15T11:05:39.394Z,53.09
2023-01-15T11:09:10.258Z,69.31
2023-01-15T11:12:39.559Z,67.17
2023-01-15T11:16:05.285Z,58.78
2023-01-15T11:19:41.164Z,54.86
2023-01-15T11:22:48.179Z,46.93
2023-01-15T11:26:00.145Z,44.55
2023-01-15T11:29:25.094Z,46.28
2023-01-15T11:32:36.527Z,47.43
2023-01-15T11:35:58.553Z,44.91
2023-01-15T11:39:05.737Z,45.15
2023-01-15T11:42:33.524Z,51.58
2023-01-15T11:46:03.910Z,61.14
2023-01-15T11:49:26.380Z,52.15
2023-01-15T11:52:36.157Z,56.87
2023-01-15T11:55:53.231Z,60.63
2023-01-15T11:59:05.362Z,54.11
2023-01-15T12:02:30.794Z,48.60
2023-01-15T12:05:40.086Z,59.45
2023-01-15T12:09:06.865Z,63.21
2023-01-15T12:12:31.444Z,61.91
2023-01-15T12:15:55.636Z,75.36
2023-01-15T12:19:21.040Z,91.95
2023-01-15T12:23:02.041Z,72.43
2023-01-15T12:26:26.530Z,73.66
2023-01-15T12:29:43.203Z,66.37
2023-01-15T12:33:04.967Z,60.03
2023-01-15T12:36:23.051Z,64.22
2023-01-15T12:39:43.829Z,93.64
2023-01-15T12:43:11.112Z,112.98
2023-01-15T12:46:29.264Z,70.41
2023-01-15T12:49:49.260Z,52.08
2023-01-15T12:53:09.955Z,48.82
2023-01-15T12:56:29.004Z,50.92
2023-01-15T12:59:52.141Z,54.10
2023-01-15T13:03:19.103Z,43.87
2023-01-15T13:06:30.453Z,49.99
2023-01-15T13:09:49.490Z,52.74
2023-01-15T13:13:02.840Z,52.27
2023-01-15T13:16:25.964Z,45.20
2023-01-15T13:19:49.540Z,52.69
2023-01-15T13:23:11.864Z,62.35
2023-01-15T13:26:58.705Z,65.89
2023-01-15T13:30:47.034Z,57.09
2023-01-15T13:34:05.755Z,59.33
2023-01-15T13:37:28.342Z,61.32
2023-01-15T13:40:44.307Z,73.10
2023-01-15T13:43:51.790Z,79.72
2023-01-15T13:47:09.146Z,73.08
2023-01-15T13:50:31.258Z,70.04
2023-01-15T13:53:47.966Z,59.48
2023-01-15T13:56:55.506Z,58.02
2023-01-15T14:00:04.034Z,57.40
2023-01-15T14:03:31.492Z,57.58
2023-01-15T14:06:51.897Z,64.95
2023-01-15T14:09:58.188Z,75.57
2023-01-15T14:14:10.172Z,77.79
2023-01-15T14:17:58.380Z,61.24
2023-01-15T14:21:30.655Z,74.89
2023-01-15T14:25:19.165Z,80.43
2023-01-15T14:28:50.514Z,79.84
2023-01-15T14:32:14.990Z,75.69
2023-01-15T14:35:28.116Z,73.84
2023-01-15T14:38:34.485Z,66.22
2023-01-15T14:41:59.385Z,65.17
2023-01-15T14:45:12.144Z,62.11
2023-01-15T14:48:37.842Z,72.92
2023-01-15T14:51:54.257Z,64.71
2023-01-15T14:55:03.904Z,62.09
2023-01-15T14:58:35.075Z,68.65
2023-01-15T15:01:52.830Z,86.99
2023-01-15T15:05:03.529Z,85.76
2023-01-15T15:08:17.430Z,65.11
2023-01-15T15:11:51.399Z,57.94
2023-01-15T15:15:19.487Z,58.39
2023-01-15T15:18:36.444Z,62.44
2023-01-15T15:21:49.917Z,61.20
2023-01-15T15:24:59.547Z,67.31
2023-01-15T15:28:09.763Z,78.13
2023-01-15T15:31:26.617Z,57.89
2023-01-15T15:34:38.442Z,62.61
2023-01-15T15:37:48.968Z,72.48
2023-01-15T15:41:02.135Z,69.09
2023-01-15T15:44:29.585Z,71.76
2023-01-15T15:47:57.312Z,71.18
2023-01-15T15:51:03.845Z,59.32
2023-01-15T15:54:19.732Z,56.93
2023-01-15T15:57:26.101Z,61.29
2023-01-15T16:00:38.289Z,62.85
2023-01-15T16:03:52.544Z,57.38
2023-01-15T16:06:59.615Z,66.11
2023-01-15T16:10:17.768Z,74.98
2023-01-15T16:13:35.738Z,81.00
2023-01-15T16:16:42.796Z,79.59
2023-01-15T16:19:52.984Z,69.34
2023-01-15T16:23:04.364Z,75.22
2023-01-15T16:26:23.227Z,67.11
2023-01-15T16:29:34.306Z,63.81
2023-01-15T16:32:42.415Z,65.50
2023-01-15T16:35:51.703Z,70.93
2023-01-15T16:38:59.672Z,89.63
2023-01-15T16:42:06.063Z,106.53
2023-01-15T16:45:28.535Z,147.98
2023-01-15T16:48:38.458Z,126.59
2023-01-15T16:51:48.583Z,117.94
2023-01-15T16:54:56.991Z,140.76
2023-01-15T16:58:36.039Z,152.45
2023-01-15T17:01:46.735Z,142.05
2023-01-15T17:04:54.649Z,133.63
2023-01-15T17:08:03.749Z,124.33
2023-01-15T17:11:24.291Z,116.37
2023-01-15T17:14:32.810Z,114.87
2023-01-15T17:17:40.375Z,125.83
2023-01-15T17:20:46.735Z,123.41
2023-01-15T17:23:57.706Z,124.06
2023-01-15T17:27:03.979Z,114.97
2023-01-15T17:30:16.914Z,115.19
2023-01-15T17:33:24.542Z,124.45
2023-01-15T17:36:34.811Z,121.15
2023-01-15T17:39:44.162Z,119.60
2023-01-15T17:42:52.183Z,119.08
2023-01-15T17:46:00.295Z,100.80
2023-01-15T17:49:07.705Z,111.18
2023-01-15T17:52:23.098Z,123.40
2023-01-15T17:55:45.730Z,120.60
2023-01-15T17:59:04.411Z,132.29
2023-01-15T18:02:31.781Z,163.42
2023-01-15T18:05:38.344Z,136.75
2023-01-15T18:08:52.461Z,134.74
2023-01-15T18:12:01.395Z,147.45
2023-01-15T18:15:10.798Z,129.09
2023-01-15T18:18:17.123Z,130.52
2023-01-15T18:21:25.233Z,139.31
2023-01-15T18:24:32.126Z,121.07
2023-01-15T18:27:43.586Z,104.91
2023-01-15T18:30:50.647Z,108.72
2023-01-15T18:33:57.622Z,118.80
2023-01-15T18:37:04.107Z,110.59
2023-01-15T18:40:13.658Z,114.50
2023-01-15T18:43:34.785Z,102.15
2023-01-15T18:46:50.657Z,108.26
2023-01-15T18:49:58.085Z,112.54
2023-01-15T18:53:05.317Z,104.28
2023-01-15T18:56:11.909Z,112.05
2023-01-15T18:59:21.555Z,117.92
2023-01-15T19:02:27.932Z,115.54
2023-01-15T19:05:35.365Z,98.09
2023-01-15T19:08:41.624Z,92.79
2023-01-15T19:11:48.669Z,88.40
2023-01-15T19:15:10.063Z,93.06
2023-01-15T19:18:29.645Z,85.65
2023-01-15T19:21:35.836Z,87.80
2023-01-15T19:24:43.261Z,82.39
2023-01-15T19:27:50.781Z,90.46
2023-01-15T19:31:12.754Z,81.83
2023-01-15T19:34:33.229Z,111.63
2023-01-15T19:37:42.227Z,97.20
2023-01-15T19:40:50.303Z,106.33
2023-01-15T19:44:09.645Z,102.65
2023-01-15T19:47:38.520Z,91.23
2023-01-15T19:50:48.851Z,92.20
2023-01-15T19:53:55.089Z,102.96
2023-01-15T19:57:02.343Z,110.66
2023-01-15T20:00:13.491Z,116.63
2023-01-15T20:03:24.054Z,109.38
2023-01-15T20:06:30.232Z,109.87
2023-01-15T20:09:38.802Z,119.68
2023-01-15T20:12:59.130Z,116.96
2023-01-15T20:16:11.969Z,120.23
2023-01-15T20:19:20.894Z,114.60
2023-01-15T20:22:28.806Z,109.68
2023-01-15T20:25:36.365Z,120.37
2023-01-15T20:28:47.876Z,123.82
2023-01-15T20:31:54.419Z,122.72
2023-01-15T20:35:04.360Z,144.24
2023-01-15T20:38:10.830Z,141.37
2023-01-15T20:41:30.327Z,133.84
2023-01-15T20:44:49.047Z,122.90
2023-01-15T20:48:08.777Z,120.38
2023-01-15T20:51:19.939Z,124.97
2023-01-15T20:54:28.949Z,127.32
2023-01-15T20:57:37.447Z,144.07
2023-01-15T21:00:44.980Z,142.26
2023-01-15T21:03:51.220Z,137.51
2023-01-15T21:07:00.940Z,141.52
2023-01-15T21:10:10.307Z,137.01
2023-01-15T21:13:17.561Z,115.30
2023-01-15T21:16:23.803Z,114.17
2023-01-15T21:19:31.217Z,111.60
2023-01-15T21:22:40.741Z,104.19
2023-01-15T21:25:47.919Z,103.35
2023-01-15T21:28:57.356Z,103.55
2023-01-15T21:32:04.417Z,96.68
2023-01-15T21:35:11.620Z,101.00
2023-01-15T21:38:21.288Z,97.43
2023-01-15T21:41:48.854Z,97.04
2023-01-15T21:44:53.415Z,99.35
2023-01-15T21:47:59.641Z,106.25
2023-01-15T21:51:08.674Z,106.69
2023-01-15T21:54:17.755Z,106.88
2023-01-15T21:57:24.934Z,109.38
2023-01-15T22:00:31.336Z,107.68
2023-01-15T22:03:39.375Z,106.20
2023-01-15T22:06:45.625Z,113.94
2023-01-15T22:09:55.366Z,111.38
2023-01-15T22:13:01.580Z,102.35
2023-01-15T22:16:10.056Z,94.52
2023-01-15T22:19:20.228Z,94.56
2023-01-15T22:22:31.406Z,97.77
2023-01-15T22:25:43.344Z,105.66
2023-01-15T22:28:52.044Z,105.68
2023-01-15T22:31:59.418Z,111.18
2023-01-15T22:35:06.865Z,124.91
2023-01-15T22:38:13.203Z,115.93
2023-01-15T22:41:43.525Z,112.36
2023-01-15T22:44:50.982Z,120.06
2023-01-15T22:47:58.004Z,116.41
2023-01-15T22:51:04.713Z,121.50
2023-01-15T22:54:13.976Z,127.60
2023-01-15T22:57:23.779Z,121.26
2023-01-15T23:00:30.844Z,123.74
2023-01-15T23:03:38.366Z,128.41
2023-01-15T23:06:45.898Z,120.56
2023-01-15T23:09:52.000Z,123.24
2023-01-15T23:13:01.805Z,125.66
2023-01-15T23:16:09.502Z,127.58
2023-01-15T23:19:16.435Z,131.89
2023-01-15T23:22:22.909Z,138.96
2023-01-15T23:25:29.843Z,138.84
2023-01-15T23:28:38.687Z,142.25
2023-01-15T23:31:45.644Z,147.20
2023-01-15T23:34:51.910Z,149.80
2023-01-15T23:37:58.776Z,159.23
2023-01-15T23:41:10.545Z,167.60
2023-01-15T23:44:36.982Z,163.88
2023-01-15T23:47:43.160Z,153.16
2023-01-15T23:50:50.172Z,158.73
2023-01-15T23:53:56.373Z,151.71
2023-01-15T23:57:08.119Z,149.15
